Time;durP1;ratioP1;P1;durP2;ratioP2;P2;SDS_P1;SDS_P2;PMS_P1;PMS_P2;Temp;Humidity;BMP_temperature;BMP_pressure;BME280_temperature;BME280_humidity;BME280_pressure;Samples;Min_cycle;Max_cycle;Signal;HPM_P1;HPM_P2
2023/06/06 00:01:29;;;;;;;9.07;1.80;;;13.20;99.90;;;12.08;100.00;97654.81;5006744;28;20038;-72
2023/06/06 00:03:57;;;;;;;2.90;1.50;;;13.30;99.90;;;12.00;100.00;97651.75;5001363;28;20046;-73
2023/06/06 00:06:27;;;;;;;3.42;1.52;;;13.30;99.90;;;12.05;100.00;97652.34;4984917;28;20054;-72
2023/06/06 00:08:54;;;;;;;5.68;1.90;;;13.30;99.90;;;11.96;100.00;97655.38;4992278;28;20065;-71
2023/06/06 00:11:21;;;;;;;2.65;1.45;;;13.20;99.90;;;12.02;100.00;97649.88;4988794;28;20482;-72
2023/06/06 00:13:49;;;;;;;3.58;1.92;;;13.20;99.90;;;12.06;100.00;97643.63;5007688;28;20136;-72
2023/06/06 00:16:18;;;;;;;4.18;1.70;;;13.20;99.90;;;12.19;100.00;97649.09;5009678;28;20053;-72
2023/06/06 00:18:45;;;;;;;4.72;2.00;;;13.30;99.90;;;12.21;100.00;97644.66;5010515;28;20074;-72
2023/06/06 00:21:12;;;;;;;3.40;1.55;;;13.30;99.90;;;12.20;100.00;97643.81;4990601;28;20427;-72
2023/06/06 00:23:40;;;;;;;5.25;1.38;;;13.40;99.90;;;12.14;100.00;97637.13;5010316;28;20149;-72
2023/06/06 00:26:07;;;;;;;2.85;1.60;;;13.40;99.90;;;12.05;100.00;97636.75;5004605;28;20515;-72
2023/06/06 00:28:34;;;;;;;2.65;1.42;;;13.30;99.90;;;11.97;100.00;97644.91;5007882;28;20133;-72
2023/06/06 00:31:01;;;;;;;5.05;2.55;;;13.30;99.90;;;12.02;100.00;97645.53;4981544;28;20156;-73
2023/06/06 00:33:29;;;;;;;4.57;1.83;;;13.30;99.90;;;11.99;100.00;97647.44;5003163;28;20109;-73
2023/06/06 00:35:56;;;;;;;5.05;1.67;;;13.20;99.90;;;11.99;100.00;97640.47;4980164;28;20053;-73
2023/06/06 00:38:23;;;;;;;3.63;1.80;;;13.20;99.90;;;12.00;100.00;97638.72;5009228;28;20117;-72
2023/06/06 00:40:50;;;;;;;4.13;1.90;;;13.20;99.90;;;12.05;100.00;97634.97;5012651;28;20049;-73
2023/06/06 00:43:17;;;;;;;6.22;1.77;;;13.30;99.90;;;12.07;100.00;97627.94;5007994;28;20077;-72
2023/06/06 00:45:48;;;;;;;8.05;3.03;;;13.30;99.90;;;12.14;100.00;97626.72;5006263;28;20069;-72
2023/06/06 00:48:17;;;;;;;3.83;1.50;;;13.30;99.90;;;12.24;100.00;97634.94;5009392;28;20526;-72
2023/06/06 00:50:47;;;;;;;3.20;1.65;;;13.40;99.90;;;12.19;100.00;97641.28;5011619;28;20141;-72
2023/06/06 00:53:14;;;;;;;3.75;1.50;;;13.40;99.90;;;12.14;100.00;97636.31;4971162;28;20096;-72
2023/06/06 00:55:43;;;;;;;4.13;1.92;;;13.40;99.90;;;12.16;100.00;97642.28;5007649;28;20054;-72
2023/06/06 00:58:12;;;;;;;5.32;1.55;;;13.40;99.90;;;12.17;100.00;97645.72;4992265;28;20056;-72
2023/06/06 01:00:40;;;;;;;4.55;1.52;;;13.40;99.90;;;12.05;100.00;97650.59;4988798;28;20056;-72
2023/06/06 01:03:10;;;;;;;4.03;1.77;;;13.30;99.90;;;12.09;100.00;97649.53;4983570;28;20054;-73
2023/06/06 01:05:39;;;;;;;4.50;1.80;;;13.30;99.90;;;12.18;100.00;97648.25;4987284;28;20383;-72
2023/06/06 01:08:07;;;;;;;5.15;1.85;;;13.30;99.90;;;12.14;100.00;97657.13;5005591;28;20058;-72
2023/06/06 01:10:34;;;;;;;4.43;1.48;;;13.30;99.90;;;12.33;100.00;97650.09;5003099;28;20046;-73
2023/06/06 01:13:20;;;;;;;4.60;2.00;;;13.40;99.90;;;12.39;100.00;97650.75;5001046;28;20126;-72
2023/06/06 01:16:05;;;;;;;4.32;2.00;;;13.40;99.90;;;12.42;100.00;97654.03;4999912;28;20170;-73
2023/06/06 01:18:33;;;;;;;5.47;1.88;;;13.50;99.90;;;12.53;100.00;97646.53;5001187;28;20053;-72
2023/06/06 01:21:01;;;;;;;4.35;2.08;;;13.60;99.90;;;12.44;100.00;97651.34;5005475;28;20054;-72
2023/06/06 01:23:30;;;;;;;3.28;1.60;;;13.60;99.90;;;12.31;100.00;97646.72;5008690;28;20077;-72
2023/06/06 01:26:05;;;;;;;3.65;1.70;;;13.60;99.90;;;12.30;100.00;97657.22;5004281;28;20058;-72
2023/06/06 01:28:33;;;;;;;5.38;1.90;;;13.60;99.90;;;12.41;100.00;97646.31;4989617;28;20042;-73
2023/06/06 01:31:00;;;;;;;4.45;1.95;;;13.60;99.90;;;12.36;100.00;97646.50;4991946;28;20053;-73
2023/06/06 01:33:43;;;;;;;4.32;2.42;;;13.60;99.90;;;12.11;100.00;97655.50;4992292;28;20464;-73
2023/06/06 01:36:33;;;;;;;5.47;1.75;;;13.50;99.90;;;12.12;100.00;97659.78;4991292;28;20042;-73
2023/06/06 01:39:08;;;;;;;9.60;3.10;;;13.50;99.90;;;12.09;100.00;97657.34;4996180;28;20937;-72
2023/06/06 01:41:37;;;;;;;4.90;2.05;;;13.40;99.90;;;11.97;100.00;97655.31;5011153;28;20124;-72
2023/06/06 01:44:08;;;;;;;6.70;2.38;;;13.40;99.90;;;11.73;100.00;97659.88;5013308;28;20140;-73
2023/06/06 01:46:37;;;;;;;4.57;1.58;;;13.20;99.90;;;11.71;100.00;97662.53;4997426;28;20141;-73
2023/06/06 01:49:04;;;;;;;6.28;2.03;;;13.10;99.90;;;11.76;100.00;97664.06;5010484;28;20045;-73
2023/06/06 01:51:32;;;;;;;5.80;2.40;;;13.00;99.90;;;11.79;100.00;97664.78;4994826;28;20054;-73
2023/06/06 01:53:59;;;;;;;5.75;2.40;;;13.00;99.90;;;11.73;100.00;97668.50;4987484;28;20054;-73
2023/06/06 01:56:27;;;;;;;4.70;1.90;;;13.00;99.90;;;11.82;100.00;97669.00;4988800;28;20076;-72
2023/06/06 01:58:55;;;;;;;8.40;2.03;;;13.00;99.90;;;11.83;100.00;97660.28;4988442;28;20400;-72
2023/06/06 02:01:22;;;;;;;5.80;2.40;;;13.00;99.90;;;11.88;100.00;97664.41;4987577;28;20441;-72
2023/06/06 02:03:49;;;;;;;4.38;1.98;;;13.10;99.90;;;11.75;100.00;97673.66;5012217;28;20049;-73
2023/06/06 02:06:16;;;;;;;3.95;2.05;;;13.00;99.90;;;11.44;100.00;97674.19;5007750;28;20048;-73
2023/06/06 02:08:44;;;;;;;4.45;1.83;;;13.00;99.90;;;11.44;100.00;97674.19;5007519;28;20073;-72
2023/06/06 02:11:11;;;;;;;5.38;2.20;;;12.80;99.90;;;11.43;100.00;97673.34;4995000;28;20084;-73
2023/06/06 02:13:38;;;;;;;6.10;2.17;;;12.80;99.90;;;11.54;100.00;97672.88;5013079;28;20124;-73
2023/06/06 02:16:06;;;;;;;4.13;1.95;;;12.80;99.90;;;11.60;100.00;97675.16;5007991;28;20145;-72
2023/06/06 02:18:33;;;;;;;4.15;2.17;;;12.80;99.90;;;11.58;100.00;97678.75;5005836;28;20077;-73
2023/06/06 02:21:00;;;;;;;6.93;2.20;;;12.90;99.90;;;11.53;100.00;97678.97;5007988;28;20045;-72
2023/06/06 02:23:27;;;;;;;3.90;1.73;;;12.80;99.90;;;11.45;100.00;97671.53;5008653;28;20045;-72
2023/06/06 02:25:55;;;;;;;3.63;2.00;;;12.80;99.90;;;11.40;100.00;97675.22;4974277;28;20045;-72
2023/06/06 02:28:23;;;;;;;7.18;2.47;;;12.70;99.90;;;11.32;100.00;97674.72;4980653;28;20049;-72
2023/06/06 02:30:50;;;;;;;3.35;2.00;;;12.70;99.90;;;11.26;100.00;97674.06;5004178;28;20049;-72
2023/06/06 02:33:17;;;;;;;4.10;2.00;;;12.60;99.90;;;11.13;100.00;97677.25;5003792;28;20045;-72
2023/06/06 02:35:44;;;;;;;3.40;1.80;;;12.50;99.90;;;11.11;100.00;97685.16;4989585;28;20140;-72
2023/06/06 02:38:12;;;;;;;5.78;2.00;;;12.50;99.90;;;11.26;100.00;97681.03;4991825;28;20554;-72
2023/06/06 02:40:39;;;;;;;4.32;2.38;;;12.50;99.90;;;11.22;100.00;97680.34;4985639;28;20417;-73
2023/06/06 02:43:06;;;;;;;5.50;2.08;;;12.50;99.90;;;11.30;100.00;97685.19;5005992;28;20088;-72
2023/06/06 02:45:35;;;;;;;6.07;2.00;;;12.50;99.90;;;11.27;100.00;97680.13;4995127;28;20049;-72
2023/06/06 02:48:02;;;;;;;4.93;1.77;;;12.50;99.90;;;11.26;100.00;97678.44;5009722;28;20616;-72
2023/06/06 02:50:31;;;;;;;5.10;2.20;;;12.50;99.90;;;11.22;100.00;97682.94;5009424;28;20526;-73
2023/06/06 02:53:03;;;;;;;6.57;2.20;;;12.50;99.90;;;11.19;100.00;97687.41;5005422;28;20458;-72
2023/06/06 02:55:33;;;;;;;4.43;2.03;;;12.50;99.90;;;11.14;100.00;97685.00;5006976;28;20425;-72
2023/06/06 02:58:01;;;;;;;6.63;2.50;;;12.40;99.90;;;11.14;100.00;97678.97;5005782;28;20050;-72
2023/06/06 03:00:28;;;;;;;5.72;2.00;;;12.40;99.90;;;11.13;100.00;97685.06;5010550;28;20514;-72
2023/06/06 03:02:55;;;;;;;6.57;2.33;;;12.50;99.90;;;11.12;100.00;97685.97;4999250;28;20062;-72
2023/06/06 03:05:28;;;;;;;6.72;2.40;;;12.40;99.90;;;11.09;100.00;97686.97;5014431;28;20065;-73
2023/06/06 03:07:56;;;;;;;4.07;1.98;;;12.30;99.90;;;10.97;100.00;97683.13;5009205;28;20121;-73
2023/06/06 03:10:23;;;;;;;5.80;2.55;;;12.40;99.90;;;11.12;100.00;97689.41;5011087;28;20046;-73
2023/06/06 03:12:51;;;;;;;6.53;2.35;;;12.40;99.90;;;11.12;100.00;97696.38;4999990;28;20077;-73
2023/06/06 03:15:18;;;;;;;6.45;2.35;;;12.40;99.90;;;11.13;100.00;97696.31;4996756;28;20080;-73
2023/06/06 03:17:45;;;;;;;6.05;2.50;;;12.40;99.90;;;11.16;100.00;97708.31;5007977;28;20064;-72
2023/06/06 03:20:13;;;;;;;6.22;2.40;;;12.40;99.90;;;11.03;100.00;97698.44;5002995;28;20065;-72
2023/06/06 03:22:40;;;;;;;5.03;2.20;;;12.40;99.90;;;11.11;100.00;97703.31;4994326;28;20621;-73
2023/06/06 03:25:07;;;;;;;5.10;2.17;;;12.40;99.90;;;11.09;100.00;97703.38;5010896;28;20096;-72
2023/06/06 03:27:35;;;;;;;5.70;2.17;;;12.40;99.90;;;11.11;100.00;97703.31;4991974;28;20062;-72
2023/06/06 03:30:06;;;;;;;7.32;1.98;;;12.40;99.90;;;11.09;100.00;97705.16;5003876;28;20046;-73
2023/06/06 03:32:33;;;;;;;5.22;2.50;;;12.40;99.90;;;11.10;100.00;97706.81;5003970;28;20050;-72
2023/06/06 03:35:01;;;;;;;4.53;2.05;;;12.40;99.90;;;11.15;100.00;97712.66;4996611;28;20057;-72
2023/06/06 03:37:28;;;;;;;5.68;2.35;;;12.40;99.90;;;11.16;100.00;97710.94;5009512;28;20053;-72
2023/06/06 03:39:55;;;;;;;5.88;2.08;;;12.40;99.90;;;11.17;100.00;97712.59;5007739;28;20116;-72
2023/06/06 03:42:22;;;;;;;4.13;2.28;;;12.40;99.90;;;11.05;100.00;97719.16;5008131;28;20045;-73
2023/06/06 03:44:49;;;;;;;6.45;2.22;;;12.30;99.90;;;11.06;100.00;97723.44;5014052;28;20049;-72
2023/06/06 03:47:16;;;;;;;4.53;2.10;;;12.30;99.90;;;11.04;100.00;97723.53;5016333;28;20049;-72
2023/06/06 03:49:43;;;;;;;3.35;1.92;;;12.30;99.90;;;11.17;100.00;97726.44;4995981;28;20135;-72
2023/06/06 03:52:11;;;;;;;4.22;2.22;;;12.30;99.90;;;11.26;100.00;97725.19;5007203;28;20071;-72
2023/06/06 03:54:38;;;;;;;4.63;2.40;;;12.40;99.90;;;11.56;100.00;97719.56;5000461;28;20064;-73
2023/06/06 03:57:11;;;;;;;5.65;2.40;;;12.50;99.90;;;11.59;100.00;97719.44;4997934;28;20136;-73
2023/06/06 03:59:39;;;;;;;5.25;2.45;;;12.60;99.90;;;11.69;100.00;97720.72;5010237;28;20600;-72
2023/06/06 04:02:06;;;;;;;6.68;2.40;;;12.70;99.90;;;11.62;100.00;97720.16;4990996;28;20113;-73
2023/06/06 04:04:33;;;;;;;6.03;2.38;;;12.70;99.90;;;11.69;100.00;97715.53;4988379;28;20061;-72
2023/06/06 04:07:00;;;;;;;4.82;2.05;;;12.80;99.90;;;11.75;100.00;97717.84;4990531;28;20069;-72
2023/06/06 04:09:27;;;;;;;5.28;2.30;;;12.80;99.90;;;11.88;100.00;97715.56;5008505;28;20045;-72
2023/06/06 04:11:54;;;;;;;5.60;2.67;;;12.90;99.90;;;11.92;100.00;97714.50;5002095;28;20050;-72
2023/06/06 04:14:21;;;;;;;4.82;2.40;;;13.00;99.90;;;12.14;100.00;97716.97;4997819;28;20111;-72
2023/06/06 04:16:50;;;;;;;4.22;2.30;;;13.10;99.90;;;12.12;100.00;97718.78;5003577;28;20430;-72
2023/06/06 04:19:17;;;;;;;6.82;3.00;;;13.10;99.90;;;12.18;100.00;97720.25;5006845;28;20053;-72
2023/06/06 04:21:46;;;;;;;6.60;2.63;;;13.20;99.90;;;12.25;100.00;97724.28;5007225;28;20123;-73
2023/06/06 04:24:13;;;;;;;4.22;2.60;;;13.30;99.90;;;12.46;100.00;97725.84;5014111;28;20046;-72
2023/06/06 04:26:40;;;;;;;4.45;2.50;;;13.40;99.90;;;12.55;100.00;97724.56;5006822;28;20125;-73
2023/06/06 04:29:08;;;;;;;6.97;2.83;;;13.40;99.90;;;12.72;100.00;97726.34;4991138;28;20049;-73
2023/06/06 04:31:35;;;;;;;5.68;2.65;;;13.50;99.90;;;12.86;100.00;97716.09;5004179;28;20061;-72
2023/06/06 04:34:03;;;;;;;4.03;2.20;;;13.60;99.90;;;12.95;100.00;97722.59;5004297;28;20780;-73
2023/06/06 04:36:33;;;;;;;4.53;2.53;;;13.80;99.90;;;12.94;100.00;97716.56;4968477;28;20049;-73
2023/06/06 04:39:00;;;;;;;4.45;2.60;;;13.80;99.90;;;12.93;100.00;97724.44;5011002;28;20139;-73
2023/06/06 04:41:33;;;;;;;4.97;2.65;;;13.90;99.90;;;13.39;100.00;97724.78;5003885;28;20065;-72
2023/06/06 04:44:03;;;;;;;5.82;2.30;;;14.10;99.90;;;13.71;100.00;97717.03;5013284;28;20148;-72
2023/06/06 04:46:31;;;;;;;3.55;2.25;;;14.20;99.90;;;13.86;100.00;97710.97;4995064;28;20597;-72
2023/06/06 04:49:01;;;;;;;4.75;2.70;;;14.40;99.90;;;14.02;100.00;97718.81;4995011;28;20042;-73
2023/06/06 04:51:29;;;;;;;4.13;2.90;;;14.60;99.90;;;14.25;100.00;97708.91;4997842;28;20072;-73
2023/06/06 04:54:01;;;;;;;5.55;2.83;;;14.90;99.90;;;14.41;100.00;97709.72;5008686;28;20038;-73
2023/06/06 04:56:29;;;;;;;5.45;3.05;;;15.00;99.90;;;14.69;100.00;97711.66;5006078;28;20120;-72
2023/06/06 04:59:05;;;;;;;5.88;3.13;;;15.20;99.90;;;14.86;100.00;97705.47;4991692;28;20049;-72
2023/06/06 05:01:37;;;;;;;4.70;2.92;;;15.40;99.90;;;15.05;100.00;97713.94;4992281;28;20048;-73
2023/06/06 05:04:06;;;;;;;8.20;2.90;;;15.50;99.90;;;15.18;100.00;97705.34;5003943;28;20045;-72
2023/06/06 05:06:34;;;;;;;9.15;3.20;;;15.70;99.90;;;15.22;100.00;97712.09;4995382;28;20047;-73
2023/06/06 05:09:06;;;;;;;6.20;2.60;;;15.80;99.90;;;15.42;100.00;97703.88;5009051;28;20535;-73
2023/06/06 05:11:36;;;;;;;5.63;3.30;;;16.00;99.90;;;15.42;100.00;97708.28;5013293;28;20048;-73
2023/06/06 05:14:03;;;;;;;5.13;2.90;;;16.10;99.90;;;15.47;100.00;97706.22;5015246;28;20124;-73
2023/06/06 05:16:33;;;;;;;5.72;3.10;;;16.20;99.90;;;15.67;100.00;97697.19;5021947;28;20097;-72
2023/06/06 05:19:01;;;;;;;5.78;3.08;;;16.30;99.90;;;15.65;100.00;97704.28;4994029;28;20065;-72
2023/06/06 05:21:28;;;;;;;8.40;3.35;;;16.40;99.90;;;15.69;100.00;97695.28;4987654;28;20042;-72
2023/06/06 05:23:58;;;;;;;6.07;3.00;;;16.40;99.90;;;15.92;100.00;97696.53;4988481;28;20118;-72
2023/06/06 05:26:25;;;;;;;4.82;2.88;;;16.60;99.90;;;16.03;100.00;97699.31;5002148;28;20186;-72
2023/06/06 05:28:53;;;;;;;5.20;2.97;;;16.60;99.90;;;16.11;100.00;97706.69;4996294;28;20537;-72
2023/06/06 05:31:22;;;;;;;5.68;2.97;;;16.80;99.90;;;16.30;100.00;97706.34;4987186;28;20069;-72
2023/06/06 05:33:50;;;;;;;6.60;2.70;;;16.90;99.90;;;16.27;100.00;97704.78;5007632;28;20443;-72
2023/06/06 05:36:17;;;;;;;6.97;2.88;;;16.90;99.90;;;16.32;100.00;97707.09;4987967;28;20062;-73
2023/06/06 05:38:45;;;;;;;6.78;2.63;;;17.00;99.90;;;16.57;100.00;97701.13;4984897;28;20100;-72
2023/06/06 05:41:13;;;;;;;5.22;3.05;;;17.10;99.90;;;16.59;100.00;97708.88;4996784;28;20057;-72
2023/06/06 05:43:44;;;;;;;6.63;3.08;;;17.20;99.90;;;16.69;100.00;97702.09;4999342;28;20056;-73
2023/06/06 05:46:12;;;;;;;4.85;2.95;;;17.30;99.90;;;16.64;100.00;97707.63;5001891;28;20054;-73
2023/06/06 05:48:40;;;;;;;6.70;2.95;;;17.40;99.90;;;16.69;100.00;97710.81;5002402;28;20053;-73
2023/06/06 05:51:08;;;;;;;7.97;2.58;;;17.50;99.90;;;16.78;100.00;97711.13;4989122;28;20438;-72
2023/06/06 05:53:50;;;;;;;5.57;3.15;;;17.50;99.90;;;16.89;100.00;97708.69;5004508;28;20057;-73
2023/06/06 05:56:21;;;;;;;5.00;2.70;;;17.50;99.90;;;16.93;100.00;97711.00;5007690;28;20076;-72
2023/06/06 05:58:52;;;;;;;7.80;3.38;;;17.50;99.90;;;17.07;100.00;97717.13;5010445;28;20149;-73
2023/06/06 06:01:21;;;;;;;6.05;2.75;;;17.60;99.90;;;16.98;100.00;97710.69;4993985;28;20075;-73
2023/06/06 06:03:48;;;;;;;6.75;2.78;;;17.80;99.90;;;17.09;100.00;97708.19;5011842;28;20109;-72
2023/06/06 06:06:16;;;;;;;5.10;2.72;;;17.70;99.90;;;17.19;100.00;97712.84;5009775;28;20050;-73
2023/06/06 06:08:44;;;;;;;8.88;3.00;;;17.80;99.90;;;17.28;100.00;97709.59;5006995;28;20042;-72
2023/06/06 06:11:13;;;;;;;5.45;2.63;;;18.00;99.90;;;17.29;100.00;97714.75;5008938;28;20518;-73
2023/06/06 06:13:40;;;;;;;6.07;2.85;;;18.00;99.90;;;17.56;100.00;97719.03;4983293;28;20143;-72
2023/06/06 06:16:07;;;;;;;11.18;3.25;;;18.10;99.90;;;17.33;100.00;97720.59;5009638;28;20076;-72
2023/06/06 06:18:34;;;;;;;10.00;3.60;;;18.10;99.90;;;17.22;100.00;97712.63;5008041;28;20080;-71
2023/06/06 06:21:01;;;;;;;7.95;3.20;;;18.10;99.90;;;17.07;100.00;97714.50;4985488;28;20064;-71
2023/06/06 06:23:28;;;;;;;14.30;3.20;;;18.00;99.90;;;17.46;100.00;97718.00;5009232;28;20054;-71
2023/06/06 06:25:55;;;;;;;6.93;3.28;;;18.00;99.90;;;17.33;100.00;97718.84;4991908;28;20064;-71
2023/06/06 06:28:25;;;;;;;4.88;2.70;;;18.10;99.90;;;17.70;100.00;97723.34;5005824;28;20136;-72
2023/06/06 06:30:52;;;;;;;6.18;2.90;;;18.20;99.90;;;17.76;100.00;97717.66;5002422;28;20097;-71
2023/06/06 06:33:22;;;;;;;6.75;2.92;;;18.30;99.90;;;18.02;100.00;97718.50;4988521;28;20096;-71
2023/06/06 06:35:50;;;;;;;5.95;2.70;;;18.60;99.90;;;18.08;100.00;97715.41;4998736;28;20084;-71
2023/06/06 06:38:17;;;;;;;5.68;2.70;;;18.60;99.90;;;18.08;100.00;97718.06;5009542;28;20052;-72
2023/06/06 06:40:44;;;;;;;5.22;2.40;;;18.70;99.90;;;18.04;100.00;97718.38;4989004;28;20125;-72
2023/06/06 06:43:15;;;;;;;5.30;2.90;;;18.80;99.90;;;18.15;100.00;97721.09;5005368;28;20433;-72
2023/06/06 06:45:42;;;;;;;5.30;2.80;;;18.90;99.90;;;18.45;100.00;97718.06;5001591;28;20077;-72
2023/06/06 06:48:09;;;;;;;4.90;2.53;;;19.00;99.90;;;18.36;100.00;97719.56;5007152;28;20076;-72
2023/06/06 06:50:36;;;;;;;6.03;2.78;;;19.10;99.90;;;18.83;100.00;97710.97;5006225;28;20105;-72
2023/06/06 06:53:07;;;;;;;7.03;2.85;;;19.20;99.90;;;18.87;100.00;97710.63;5010688;28;20503;-72
2023/06/06 06:55:34;;;;;;;4.72;2.58;;;19.30;99.90;;;19.14;100.00;97715.63;4989536;28;20132;-72
2023/06/06 06:58:01;;;;;;;5.38;2.38;;;19.60;99.90;;;19.14;100.00;97712.16;4996725;28;20459;-72
2023/06/06 07:00:31;;;;;;;5.28;2.80;;;19.80;99.90;;;19.27;100.00;97717.31;4990657;28;20054;-71
2023/06/06 07:02:59;;;;;;;3.10;2.28;;;19.90;99.90;;;19.17;100.00;97720.66;4991701;28;20046;-72
2023/06/06 07:05:27;;;;;;;3.97;2.40;;;19.90;99.90;;;19.01;100.00;97712.22;5004816;28;20046;-72
2023/06/06 07:07:54;;;;;;;7.45;2.78;;;20.00;99.90;;;19.12;100.00;97720.16;4987753;28;20062;-72
2023/06/06 07:10:24;;;;;;;3.28;2.13;;;20.00;99.90;;;19.08;100.00;97720.50;4982647;28;20061;-71
2023/06/06 07:12:52;;;;;;;5.90;2.90;;;20.00;99.90;;;19.19;100.00;97718.75;5000351;28;20046;-72
2023/06/06 07:15:22;;;;;;;4.32;2.10;;;20.00;99.90;;;19.15;100.00;97719.09;4991309;28;20080;-72
2023/06/06 07:17:50;;;;;;;4.47;2.53;;;20.00;99.90;;;19.64;100.00;97720.63;5000794;28;20057;-71
2023/06/06 07:20:23;;;;;;;6.55;2.50;;;20.10;99.90;;;19.73;100.00;97712.03;4990852;28;20057;-72
2023/06/06 07:22:56;;;;;;;4.55;2.40;;;20.30;99.90;;;19.56;100.00;97715.94;5003992;28;20180;-72
2023/06/06 07:25:23;;;;;;;4.53;2.08;;;20.30;99.90;;;19.74;100.00;97712.88;4994235;28;20061;-72
2023/06/06 07:27:50;;;;;;;5.80;2.85;;;20.30;99.90;;;19.68;100.00;97719.41;4994933;28;20820;-72
2023/06/06 07:30:17;;;;;;;5.82;2.17;;;20.40;99.90;;;19.71;100.00;97721.84;4984881;28;20053;-72
2023/06/06 07:32:46;;;;;;;3.67;2.45;;;20.50;99.90;;;19.68;100.00;97727.31;5009368;28;20074;-72
2023/06/06 07:35:19;;;;;;;3.67;2.55;;;20.50;99.90;;;19.83;100.00;97733.22;4990588;28;20058;-72
2023/06/06 07:37:46;;;;;;;4.50;2.55;;;20.50;99.90;;;19.96;100.00;97727.84;5005919;28;20050;-72
2023/06/06 07:40:14;;;;;;;3.97;2.30;;;20.60;99.90;;;20.34;100.00;97730.06;4991219;28;20057;-71
2023/06/06 07:42:43;;;;;;;3.70;2.10;;;20.70;99.90;;;20.39;100.00;97727.06;5003073;28;20046;-71
2023/06/06 07:45:10;;;;;;;4.18;2.55;;;20.80;99.90;;;20.24;100.00;97727.31;4990946;28;20055;-71
2023/06/06 07:47:40;;;;;;;4.22;2.65;;;21.00;99.90;;;20.26;100.00;97719.31;5000769;28;20050;-72
2023/06/06 07:50:08;;;;;;;9.32;3.47;;;21.10;99.90;;;20.39;100.00;97711.22;4997782;28;20140;-72
2023/06/06 07:52:36;;;;;;;8.63;2.67;;;21.10;99.90;;;20.54;100.00;97719.72;4990262;28;20086;-72
2023/06/06 07:55:05;;;;;;;4.95;2.33;;;21.20;99.90;;;20.63;100.00;97721.66;4988712;28;20412;-71
2023/06/06 07:57:33;;;;;;;5.80;2.42;;;21.20;99.90;;;20.34;100.00;97716.88;4996599;28;20474;-72
2023/06/06 08:00:06;;;;;;;4.82;2.42;;;21.30;99.90;;;20.71;100.00;97713.97;4986702;28;20046;-72
2023/06/06 08:02:34;;;;;;;4.70;2.30;;;21.30;99.90;;;20.42;100.00;97717.13;5003616;28;20054;-72
2023/06/06 08:05:02;;;;;;;4.72;2.92;;;21.40;99.90;;;20.90;100.00;97713.28;5007077;28;20588;-72
2023/06/06 08:07:33;;;;;;;4.78;2.47;;;21.40;99.90;;;21.19;100.00;97710.00;4991377;28;20051;-72
2023/06/06 08:10:00;;;;;;;4.68;2.63;;;21.60;99.90;;;20.91;100.00;97712.28;5003692;28;20109;-72
2023/06/06 08:12:27;;;;;;;5.72;2.13;;;21.70;99.90;;;21.16;100.00;97708.44;5009826;28;20052;-72
2023/06/06 08:14:54;;;;;;;3.83;2.13;;;21.70;99.90;;;21.46;100.00;97713.00;4976201;28;20152;-72
2023/06/06 08:17:21;;;;;;;4.05;2.38;;;21.90;99.90;;;21.65;100.00;97709.63;4995378;28;20047;-72
2023/06/06 08:19:48;;;;;;;3.95;2.53;;;22.20;99.90;;;21.85;100.00;97707.91;5012491;28;20041;-72
2023/06/06 08:22:15;;;;;;;5.22;2.47;;;22.40;99.90;;;21.72;100.00;97707.28;4991217;28;20096;-72
2023/06/06 08:24:43;;;;;;;4.68;2.40;;;22.60;99.90;;;22.32;100.00;97696.78;5011963;28;20049;-72
2023/06/06 08:27:10;;;;;;;4.65;2.38;;;22.60;99.90;;;22.59;100.00;97705.91;4972282;28;20559;-72
2023/06/06 08:29:37;;;;;;;4.07;2.17;;;22.80;99.90;;;22.97;100.00;97697.13;4996224;28;20056;-72
2023/06/06 08:32:06;;;;;;;5.47;2.25;;;23.00;99.90;;;22.88;100.00;97687.38;4996032;28;20104;-72
2023/06/06 08:34:34;;;;;;;3.95;2.35;;;23.20;99.90;;;23.46;100.00;97692.59;5009206;28;20046;-72
2023/06/06 08:37:01;;;;;;;4.18;2.33;;;23.40;99.90;;;23.72;100.00;97690.16;5001966;28;20049;-72
2023/06/06 08:39:29;;;;;;;5.95;2.33;;;;;;;24.35;100.00;97688.63;4983562;28;20054;-72
2023/06/06 08:41:56;;;;;;;5.18;2.10;;;23.80;99.10;;;23.90;100.00;97692.06;4999466;28;20054;-72
2023/06/06 08:44:24;;;;;;;4.38;2.42;;;24.00;98.00;;;24.39;100.00;97690.81;5006060;28;20053;-72
2023/06/06 08:46:57;;;;;;;4.15;1.90;;;23.90;98.50;;;24.00;100.00;97691.03;4974434;28;20525;-73
2023/06/06 08:49:27;;;;;;;4.20;2.10;;;24.00;97.50;;;24.34;100.00;97693.09;5009814;28;20462;-73
2023/06/06 08:51:56;;;;;;;4.85;1.95;;;24.10;97.30;;;24.93;100.00;97695.34;5002862;28;20050;-72
2023/06/06 08:54:25;;;;;;;3.28;1.60;;;24.50;95.70;;;25.19;100.00;97690.94;4992059;28;20049;-73
2023/06/06 08:56:54;;;;;;;2.85;1.77;;;25.00;93.40;;;25.38;100.00;97689.91;5007776;28;20041;-72
2023/06/06 08:59:21;;;;;;;3.67;1.50;;;25.30;93.00;;;24.75;100.00;97692.72;5004944;28;20082;-73
2023/06/06 09:01:53;;;;;;;5.15;1.77;;;25.80;91.60;;;26.05;100.00;97687.47;5003896;28;20053;-72
2023/06/06 09:04:20;;;;;;;4.40;2.00;;;26.20;91.60;;;25.41;100.00;97692.25;4977449;28;20058;-72
2023/06/06 09:06:50;;;;;;;3.30;2.10;;;26.50;91.60;;;25.36;100.00;97694.56;4981415;28;20098;-72
2023/06/06 09:09:19;;;;;;;3.67;2.10;;;26.70;91.20;;;25.40;100.00;97685.25;4977139;28;20049;-73
2023/06/06 09:11:46;;;;;;;4.22;2.00;;;26.90;90.10;;;25.98;100.00;97697.09;4980781;28;20143;-73
2023/06/06 09:14:14;;;;;;;2.13;1.50;;;27.20;90.20;;;26.49;99.96;97689.09;4985073;28;20149;-72
2023/06/06 09:16:41;;;;;;;7.35;2.00;;;27.40;89.70;;;26.58;91.41;97698.78;4994225;28;20186;-73
2023/06/06 09:19:08;;;;;;;3.15;1.70;;;27.60;85.50;;;27.01;94.46;97690.69;4987453;28;20136;-73
2023/06/06 09:21:36;;;;;;;3.08;1.77;;;28.10;86.80;;;25.95;93.33;97693.91;5004969;28;20746;-73
2023/06/06 09:24:04;;;;;;;2.90;1.50;;;28.40;83.60;;;26.31;94.78;97696.38;4988017;28;20054;-73
2023/06/06 09:26:34;;;;;;;4.30;1.95;;;28.40;84.60;;;26.17;97.90;97689.84;4985469;28;20045;-73
2023/06/06 09:29:08;;;;;;;3.05;1.75;;;28.20;84.20;;;25.99;93.13;97688.09;4981314;28;20168;-73
2023/06/06 09:31:40;;;;;;;4.13;1.83;;;28.20;82.50;;;26.88;91.25;97686.69;4992723;28;20802;-78
2023/06/06 09:34:09;;;;;;;5.30;1.88;;;28.50;82.30;;;26.74;90.28;97690.00;4996082;28;20061;-78
2023/06/06 09:36:44;;;;;;;3.60;1.65;;;28.80;82.00;;;27.52;88.17;97691.31;4993823;28;20054;-78
2023/06/06 09:39:14;;;;;;;5.90;1.90;;;29.10;81.80;;;26.79;84.79;97684.19;5001199;28;20061;-77
2023/06/06 09:41:50;;;;;;;6.75;2.10;;;29.20;78.50;;;26.28;85.62;97692.22;4996786;28;20046;-77
2023/06/06 09:44:25;;;;;;;4.50;1.55;;;29.00;77.90;;;26.52;88.13;97683.44;5002528;28;20050;-77
2023/06/06 09:47:03;;;;;;;4.22;2.20;;;28.40;78.80;;;26.61;87.10;97692.31;5000140;28;20049;-77
2023/06/06 09:49:35;;;;;;;3.28;1.77;;;28.30;79.00;;;27.87;85.32;97689.25;4991386;28;20129;-77
2023/06/06 09:52:05;;;;;;;3.72;1.73;;;28.60;79.60;;;27.12;83.53;97693.84;5000505;28;20098;-77
2023/06/06 09:54:33;;;;;;;4.05;1.67;;;28.60;77.80;;;27.06;83.90;97691.84;5009063;28;20058;-77
2023/06/06 09:57:10;;;;;;;2.65;1.65;;;28.50;78.30;;;27.86;82.75;97690.28;5006485;28;20060;-77
2023/06/06 09:59:37;;;;;;;4.07;1.88;;;28.50;78.90;;;27.53;80.13;97690.34;4987184;28;20104;-78
2023/06/06 10:02:08;;;;;;;6.35;1.90;;;28.70;77.20;;;28.18;77.11;97697.31;4990787;28;20054;-78
2023/06/06 10:04:36;;;;;;;3.55;1.50;;;29.10;76.80;;;28.41;75.19;97702.69;4991521;28;20086;-78
2023/06/06 10:07:05;;;;;;;4.63;1.60;;;29.60;75.60;;;27.32;75.64;97698.84;4996006;28;20072;-78
2023/06/06 10:09:33;;;;;;;2.75;1.55;;;29.60;74.00;;;27.08;76.44;97695.19;5007962;28;20081;-78
2023/06/06 10:12:01;;;;;;;3.30;1.65;;;29.20;74.10;;;26.83;78.92;97690.84;5006563;28;20157;-78
2023/06/06 10:14:29;;;;;;;3.90;1.70;;;28.60;74.40;;;27.04;79.43;97683.19;4985672;28;20058;-77
2023/06/06 10:16:57;;;;;;;3.78;2.00;;;28.40;75.00;;;27.86;76.81;97680.44;4997017;28;20521;-77
2023/06/06 10:19:25;;;;;;;4.28;1.80;;;28.70;74.70;;;28.32;73.54;97679.72;4990957;28;20084;-77